Time;durP1;ratioP1;P1;durP2;ratioP2;P2;SDS_P1;SDS_P2;PMS_P1;PMS_P2;Temp;Humidity;BMP_temperature;BMP_pressure;BME280_temperature;BME280_humidity;BME280_pressure;Samples;Min_cycle;Max_cycle;Signal;HPM_P1;HPM_P2
2023/06/10 00:02:08;;;;;;;11.33;10.17;;;22.80;86.40;;;;;;5010959;28;20505;-72
2023/06/10 00:04:36;;;;;;;10.23;9.30;;;22.80;85.50;;;;;;5006035;28;20463;-72
2023/06/10 00:07:08;;;;;;;10.63;9.57;;;22.80;85.40;;;;;;5009202;28;20221;-73
2023/06/10 00:09:40;;;;;;;10.63;9.63;;;22.70;85.30;;;;;;5004364;28;20492;-71
2023/06/10 00:12:06;;;;;;;10.43;9.53;;;22.70;85.30;;;;;;4996732;28;20459;-72
2023/06/10 00:14:33;;;;;;;10.37;9.57;;;22.60;85.60;;;;;;5001973;28;20465;-72
2023/06/10 00:16:59;;;;;;;9.93;9.03;;;22.60;85.70;;;;;;4994497;28;20926;-73
2023/06/10 00:19:29;;;;;;;10.57;9.57;;;22.60;85.50;;;;;;5005718;28;20547;-73
2023/06/10 00:21:56;;;;;;;10.60;9.73;;;22.70;85.70;;;;;;5004750;28;20221;-71
2023/06/10 00:24:22;;;;;;;11.53;10.33;;;22.60;85.60;;;;;;4987474;28;20469;-72
2023/06/10 00:26:48;;;;;;;11.30;10.10;;;22.50;85.70;;;;;;5005857;28;20523;-72
2023/06/10 00:29:14;;;;;;;11.07;10.10;;;22.40;85.80;;;;;;5006842;28;20461;-73
2023/06/10 00:31:40;;;;;;;10.80;9.77;;;22.10;86.50;;;;;;5002618;28;20322;-72
2023/06/10 00:34:09;;;;;;;10.43;9.50;;;22.20;86.70;;;;;;5003284;28;20531;-72
2023/06/10 00:36:35;;;;;;;13.20;9.50;;;22.00;86.80;;;;;;5006003;28;20245;-71
2023/06/10 00:39:02;;;;;;;10.70;9.70;;;22.00;87.30;;;;;;5002193;28;20491;-72
2023/06/10 00:41:29;;;;;;;10.70;9.60;;;22.00;87.20;;;;;;5007145;28;20456;-72
2023/06/10 00:43:54;;;;;;;10.80;9.83;;;22.10;87.30;;;;;;5007937;28;20970;-72
2023/06/10 00:46:21;;;;;;;9.93;9.10;;;22.00;87.10;;;;;;5004777;28;20213;-73
2023/06/10 00:48:47;;;;;;;10.87;9.77;;;22.00;87.50;;;;;;5002535;28;20220;-72
2023/06/10 00:51:13;;;;;;;11.27;9.90;;;22.00;87.30;;;;;;5002297;28;20814;-72
2023/06/10 00:53:41;;;;;;;10.60;9.70;;;22.00;87.30;;;;;;5005821;28;20287;-73
2023/06/10 00:56:07;;;;;;;10.40;9.50;;;21.80;87.70;;;;;;4998983;28;21102;-72
2023/06/10 00:58:35;;;;;;;11.13;9.80;;;21.80;88.10;;;;;;5001864;28;20564;-71
2023/06/10 01:01:01;;;;;;;10.00;9.20;;;21.50;88.50;;;;;;5003716;28;20475;-72
2023/06/10 01:03:27;;;;;;;11.20;10.10;;;21.70;87.90;;;;;;5004598;28;20821;-72
2023/06/10 01:06:35;;;;;;;10.83;9.83;;;21.80;88.10;;;;;;5004843;28;20202;-72
2023/06/10 01:09:21;;;;;;;12.90;10.00;;;21.80;88.40;;;;;;4998821;28;20479;-72
2023/06/10 01:11:59;;;;;;;9.80;8.80;;;21.80;88.30;;;;;;5004260;28;20456;-72
2023/06/10 01:14:26;;;;;;;10.80;9.80;;;21.70;88.10;;;;;;5006788;28;20460;-72
2023/06/10 01:16:55;;;;;;;10.50;9.60;;;21.90;87.70;;;;;;5001882;28;21032;-72
2023/06/10 01:19:24;;;;;;;11.83;10.17;;;21.70;87.90;;;;;;5003532;28;20471;-72
2023/06/10 01:21:51;;;;;;;10.77;9.63;;;21.60;88.20;;;;;;5010759;28;20568;-72
2023/06/10 01:24:19;;;;;;;10.10;9.20;;;21.70;88.30;;;;;;5008269;28;20455;-72
2023/06/10 01:26:49;;;;;;;9.73;8.80;;;21.70;88.10;;;;;;4989151;28;20882;-72
2023/06/10 01:29:22;;;;;;;11.07;10.00;;;21.80;88.00;;;;;;4983297;28;20476;-71
2023/06/10 01:31:58;;;;;;;11.37;10.20;;;21.70;87.80;;;;;;5018250;28;20479;-71
2023/06/10 01:34:24;;;;;;;11.37;10.27;;;21.50;88.10;;;;;;4993191;28;20989;-71
2023/06/10 01:36:50;;;;;;;11.33;10.23;;;21.50;88.40;;;;;;5007578;28;20468;-72
2023/06/10 01:39:20;;;;;;;11.10;10.10;;;21.60;88.30;;;;;;5006697;28;20460;-72
2023/06/10 01:41:47;;;;;;;10.10;9.20;;;21.40;88.70;;;;;;4980697;28;20859;-72
2023/06/10 01:44:21;;;;;;;11.23;10.20;;;21.30;88.90;;;;;;5006369;28;20476;-72
2023/06/10 01:46:47;;;;;;;10.50;9.60;;;21.30;89.40;;;;;;5004246;28;20452;-71
2023/06/10 01:49:13;;;;;;;12.17;10.97;;;21.40;89.10;;;;;;5008332;28;20509;-70
2023/06/10 01:51:39;;;;;;;12.57;11.30;;;21.50;89.00;;;;;;5004220;28;20356;-70
2023/06/10 01:54:06;;;;;;;10.93;10.03;;;21.50;88.80;;;;;;4993483;28;20439;-72
2023/06/10 01:56:32;;;;;;;10.30;9.30;;;21.50;88.60;;;;;;5009049;28;20969;-72
2023/06/10 01:59:01;;;;;;;11.03;9.93;;;21.50;88.60;;;;;;5006465;28;20221;-72
2023/06/10 02:01:27;;;;;;;12.03;10.87;;;21.50;88.60;;;;;;4999478;28;20452;-71
2023/06/10 02:03:53;;;;;;;11.60;9.90;;;21.40;88.80;;;;;;5002594;28;20449;-72
2023/06/10 02:06:18;;;;;;;10.77;9.77;;;21.30;89.00;;;;;;5006558;28;20221;-72
2023/06/10 02:08:44;;;;;;;10.83;9.77;;;21.30;89.60;;;;;;5001563;28;20225;-72
2023/06/10 02:11:10;;;;;;;10.97;9.97;;;21.30;89.10;;;;;;4988639;28;20217;-72
2023/06/10 02:13:36;;;;;;;9.77;8.70;;;21.30;88.90;;;;;;4985032;28;20299;-72
2023/06/10 02:16:01;;;;;;;10.30;9.30;;;21.30;89.10;;;;;;4986834;28;20216;-72
2023/06/10 02:18:28;;;;;;;11.00;10.10;;;21.20;88.90;;;;;;5003899;28;20228;-71
2023/06/10 02:20:54;;;;;;;10.87;9.57;;;21.30;89.20;;;;;;4983604;28;20813;-72
2023/06/10 02:23:20;;;;;;;11.40;10.37;;;21.30;89.00;;;;;;5006781;28;20689;-71
2023/06/10 02:25:47;;;;;;;10.47;9.37;;;21.20;89.30;;;;;;5006079;28;20213;-71
2023/06/10 02:28:13;;;;;;;10.23;9.30;;;21.20;89.40;;;;;;4985549;28;20630;-72
2023/06/10 02:30:41;;;;;;;10.97;9.87;;;21.10;89.40;;;;;;5001996;28;20560;-72
2023/06/10 02:33:09;;;;;;;11.10;9.50;;;21.10;89.60;;;;;;5006019;28;20528;-72
2023/06/10 02:35:37;;;;;;;11.37;10.27;;;21.00;89.70;;;;;;4991610;28;20820;-72
2023/06/10 02:38:04;;;;;;;12.03;10.80;;;21.00;89.90;;;;;;5007283;28;20530;-72
2023/06/10 02:40:31;;;;;;;13.97;10.27;;;21.00;89.90;;;;;;5006243;28;20460;-72
2023/06/10 02:42:58;;;;;;;11.33;10.30;;;21.00;90.00;;;;;;4989803;28;20449;-71
2023/06/10 02:45:24;;;;;;;11.57;10.47;;;20.90;90.30;;;;;;5005475;28;20210;-72
2023/06/10 02:47:50;;;;;;;12.40;9.63;;;20.80;90.00;;;;;;4998499;28;21005;-71
2023/06/10 02:50:16;;;;;;;10.53;9.63;;;20.80;90.00;;;;;;5004658;28;20449;-71
2023/06/10 02:52:52;;;;;;;11.03;10.03;;;20.80;90.10;;;;;;4989822;28;20213;-72
2023/06/10 02:55:17;;;;;;;11.00;9.90;;;20.60;90.40;;;;;;4980406;28;20499;-72
2023/06/10 02:57:49;;;;;;;10.43;9.20;;;20.50;90.50;;;;;;5002059;28;20221;-70
2023/06/10 03:00:16;;;;;;;13.17;10.53;;;20.50;90.50;;;;;;5001287;28;20457;-72
2023/06/10 03:02:45;;;;;;;10.93;9.83;;;20.60;90.50;;;;;;5002568;28;20464;-72
2023/06/10 03:05:12;;;;;;;11.27;9.83;;;20.50;90.30;;;;;;5004882;28;20456;-71
2023/06/10 03:07:41;;;;;;;11.53;10.53;;;20.60;90.40;;;;;;5002395;28;20467;-72
2023/06/10 03:10:07;;;;;;;11.30;9.93;;;20.60;90.30;;;;;;5005394;28;20457;-72
2023/06/10 03:12:34;;;;;;;14.83;9.80;;;20.50;90.30;;;;;;4989263;28;20218;-72
2023/06/10 03:15:00;;;;;;;9.53;8.70;;;20.60;90.40;;;;;;4999762;28;20453;-72
2023/06/10 03:17:27;;;;;;;10.43;9.30;;;20.60;90.40;;;;;;4993482;28;20241;-70
2023/06/10 03:19:53;;;;;;;10.60;9.57;;;20.60;90.40;;;;;;5004269;28;20504;-71
2023/06/10 03:22:20;;;;;;;10.60;9.60;;;20.60;90.20;;;;;;5006846;28;20480;-72
2023/06/10 03:24:59;;;;;;;10.03;9.00;;;20.60;90.30;;;;;;5004165;28;20212;-72
2023/06/10 03:27:26;;;;;;;9.30;8.37;;;20.50;90.70;;;;;;5005357;28;20560;-72
2023/06/10 03:29:55;;;;;;;11.27;10.07;;;20.50;90.50;;;;;;4992509;28;20453;-72
2023/06/10 03:32:21;;;;;;;9.73;8.83;;;20.50;90.40;;;;;;5004122;28;20445;-72
2023/06/10 03:34:47;;;;;;;11.13;8.80;;;20.40;90.50;;;;;;4992218;28;20449;-72
2023/06/10 03:37:14;;;;;;;10.00;9.03;;;20.40;90.50;;;;;;4992014;28;20220;-70
2023/06/10 03:39:40;;;;;;;9.67;8.77;;;20.40;90.40;;;;;;4985867;28;20828;-71
2023/06/10 03:42:06;;;;;;;10.40;9.40;;;20.40;90.50;;;;;;5006039;28;21010;-72
2023/06/10 03:44:33;;;;;;;9.70;8.80;;;20.40;90.30;;;;;;4987278;28;20465;-71
2023/06/10 03:46:59;;;;;;;9.10;8.20;;;20.40;90.40;;;;;;4988851;28;20453;-71
2023/06/10 03:49:28;;;;;;;10.50;9.50;;;20.40;90.30;;;;;;5006789;28;21171;-71
2023/06/10 03:51:56;;;;;;;9.30;8.40;;;20.40;90.20;;;;;;4991207;28;20496;-72
2023/06/10 03:54:22;;;;;;;9.13;8.33;;;20.40;90.20;;;;;;4986301;28;20504;-71
2023/06/10 03:56:48;;;;;;;9.30;7.57;;;20.40;90.20;;;;;;5004394;28;20244;-71
2023/06/10 03:59:14;;;;;;;8.47;7.77;;;20.40;90.20;;;;;;4991724;28;20457;-72
2023/06/10 04:01:41;;;;;;;11.60;9.80;;;20.40;90.20;;;;;;5009323;28;20344;-70
2023/06/10 04:04:07;;;;;;;9.20;8.00;;;20.30;90.20;;;;;;5004199;28;20244;-72
2023/06/10 04:06:33;;;;;;;9.37;8.47;;;20.30;90.30;;;;;;5005967;28;20456;-71
2023/06/10 04:08:59;;;;;;;9.07;8.17;;;20.30;90.20;;;;;;5001569;28;20538;-72
2023/06/10 04:11:27;;;;;;;8.90;8.00;;;20.40;90.30;;;;;;5005376;28;20229;-71
2023/06/10 04:13:52;;;;;;;9.63;8.40;;;20.30;90.10;;;;;;4990849;28;20452;-72
2023/06/10 04:16:18;;;;;;;10.30;8.87;;;20.30;90.20;;;;;;5007441;28;20214;-72
2023/06/10 04:18:46;;;;;;;9.30;8.40;;;20.30;90.40;;;;;;4999198;28;20732;-71
2023/06/10 04:21:12;;;;;;;8.93;8.13;;;20.30;90.40;;;;;;5004607;28;20481;-72
2023/06/10 04:23:38;;;;;;;10.27;7.77;;;20.30;90.20;;;;;;5004535;28;20678;-72
2023/06/10 04:26:05;;;;;;;9.83;8.93;;;20.30;90.20;;;;;;4988400;28;20387;-70
2023/06/10 04:28:31;;;;;;;10.43;8.27;;;20.40;90.20;;;;;;5004447;28;20457;-71
2023/06/10 04:30:58;;;;;;;8.80;8.00;;;20.40;90.30;;;;;;4992094;28;20603;-72
2023/06/10 04:33:24;;;;;;;9.57;8.60;;;20.30;90.10;;;;;;4991827;28;20551;-72
2023/06/10 04:35:50;;;;;;;8.77;7.87;;;20.30;90.00;;;;;;4990079;28;20214;-72
2023/06/10 04:38:17;;;;;;;7.83;7.13;;;20.40;90.10;;;;;;5002512;28;20465;-72
2023/06/10 04:40:44;;;;;;;9.93;8.17;;;20.40;90.10;;;;;;4989059;28;20458;-72
2023/06/10 04:43:11;;;;;;;8.33;7.50;;;20.50;90.00;;;;;;4984648;28;20538;-72
2023/06/10 04:45:37;;;;;;;11.10;7.40;;;20.50;89.80;;;;;;4988130;28;20458;-71
2023/06/10 04:48:03;;;;;;;6.73;6.10;;;20.50;89.80;;;;;;5002013;28;20460;-72
2023/06/10 04:50:29;;;;;;;8.80;7.30;;;20.50;89.80;;;;;;5006520;28;20727;-71
2023/06/10 04:52:56;;;;;;;7.57;6.87;;;20.50;89.70;;;;;;5004928;28;20687;-70
2023/06/10 04:55:22;;;;;;;8.40;7.67;;;20.50;89.50;;;;;;5005697;28;20321;-72
2023/06/10 04:57:48;;;;;;;7.40;6.70;;;20.60;89.50;;;;;;5001843;28;21050;-70
2023/06/10 05:00:14;;;;;;;9.40;7.03;;;20.60;89.40;;;;;;5006025;28;20453;-72
2023/06/10 05:02:40;;;;;;;7.93;7.13;;;20.60;89.70;;;;;;4982639;28;20218;-70
2023/06/10 05:05:06;;;;;;;7.47;6.77;;;20.60;89.70;;;;;;4999304;28;20327;-72
2023/06/10 05:07:31;;;;;;;7.80;7.00;;;20.60;89.40;;;;;;4965579;28;1058514;-71
2023/06/10 05:09:57;;;;;;;8.40;7.13;;;20.60;89.50;;;;;;5007023;28;20475;-70
2023/06/10 05:12:23;;;;;;;8.30;7.37;;;20.70;89.70;;;;;;4988588;28;20225;-71
2023/06/10 05:14:48;;;;;;;7.87;7.17;;;20.70;89.90;;;;;;4987973;28;20210;-72
2023/06/10 05:17:14;;;;;;;7.83;7.03;;;20.70;89.50;;;;;;5007601;28;20263;-71
2023/06/10 05:19:41;;;;;;;7.93;7.23;;;20.70;89.80;;;;;;5007459;28;20696;-72
2023/06/10 05:22:07;;;;;;;7.17;6.47;;;20.80;89.70;;;;;;4998147;28;20245;-70
2023/06/10 05:24:32;;;;;;;8.13;7.30;;;20.80;89.90;;;;;;5001744;28;20536;-71
2023/06/10 05:26:58;;;;;;;8.33;7.07;;;20.90;89.80;;;;;;5003058;28;20218;-71
2023/06/10 05:29:23;;;;;;;8.07;7.10;;;20.90;89.70;;;;;;4989750;28;20230;-71
2023/06/10 05:31:49;;;;;;;8.53;6.60;;;20.90;89.80;;;;;;4990557;28;21392;-71
2023/06/10 05:34:15;;;;;;;8.10;7.30;;;21.00;90.00;;;;;;5001603;28;20232;-71
2023/06/10 05:36:40;;;;;;;10.00;7.50;;;21.10;90.10;;;;;;5004490;28;20224;-71
2023/06/10 05:39:06;;;;;;;7.33;6.73;;;21.10;90.00;;;;;;5007054;28;20252;-71
2023/06/10 05:41:32;;;;;;;8.57;7.67;;;21.20;90.10;;;;;;5005488;28;20321;-71
2023/06/10 05:43:57;;;;;;;6.80;6.20;;;21.30;90.00;;;;;;5007003;28;20245;-70
2023/06/10 05:46:23;;;;;;;8.50;7.13;;;21.30;89.90;;;;;;5003122;28;20638;-72
2023/06/10 05:48:49;;;;;;;7.30;6.60;;;21.30;90.10;;;;;;4976816;28;20240;-72
2023/06/10 05:51:15;;;;;;;7.50;6.90;;;21.30;90.00;;;;;;5005073;28;20492;-71
2023/06/10 05:53:40;;;;;;;7.60;6.73;;;21.40;89.90;;;;;;4984531;28;20759;-72
2023/06/10 05:56:06;;;;;;;6.77;6.17;;;21.40;90.10;;;;;;4988574;28;20661;-70
2023/06/10 05:58:32;;;;;;;8.33;6.00;;;21.50;90.10;;;;;;5009025;28;20233;-71
2023/06/10 06:00:57;;;;;;;8.10;7.30;;;21.60;90.20;;;;;;4997019;28;20225;-72
2023/06/10 06:03:23;;;;;;;7.43;6.73;;;21.60;90.10;;;;;;4986110;28;20256;-72
2023/06/10 06:05:48;;;;;;;6.80;6.20;;;21.70;90.00;;;;;;5005943;28;20245;-70
2023/06/10 06:08:17;;;;;;;9.37;7.53;;;21.80;90.20;;;;;;5006063;28;20225;-72
2023/06/10 06:10:43;;;;;;;7.53;6.83;;;21.90;90.10;;;;;;5005287;28;20291;-71
2023/06/10 06:13:08;;;;;;;7.90;7.20;;;22.00;90.10;;;;;;5005927;28;20887;-73
2023/06/10 06:15:34;;;;;;;7.80;7.10;;;22.00;90.20;;;;;;5000263;28;20213;-72
2023/06/10 06:18:00;;;;;;;7.37;6.77;;;22.10;90.30;;;;;;5003223;28;20221;-71
2023/06/10 06:20:25;;;;;;;7.53;6.77;;;22.20;90.20;;;;;;4988322;28;20283;-72
2023/06/10 06:22:51;;;;;;;8.10;7.30;;;22.20;90.40;;;;;;5004374;28;20225;-72
2023/06/10 06:25:17;;;;;;;7.83;7.10;;;22.40;90.30;;;;;;4999970;28;20213;-72
2023/06/10 06:27:42;;;;;;;8.07;6.83;;;22.50;90.20;;;;;;4992082;28;20711;-70
2023/06/10 06:30:08;;;;;;;8.63;7.23;;;22.50;90.10;;;;;;5004867;28;20229;-72
2023/06/10 06:32:34;;;;;;;9.20;8.27;;;22.60;90.10;;;;;;5007296;28;20352;-72
2023/06/10 06:35:00;;;;;;;7.13;6.53;;;22.60;90.30;;;;;;5001511;28;20551;-71
2023/06/10 06:37:26;;;;;;;8.27;7.43;;;22.60;90.00;;;;;;5003965;28;20222;-72
2023/06/10 06:40:03;;;;;;;8.23;7.60;;;22.70;89.70;;;;;;5003086;28;20371;-70
2023/06/10 06:42:29;;;;;;;8.00;7.20;;;22.80;89.40;;;;;;5002822;28;20583;-72
2023/06/10 06:45:10;;;;;;;8.70;7.73;;;22.90;89.40;;;;;;4996576;28;20551;-72
2023/06/10 06:47:35;;;;;;;7.93;7.17;;;23.00;89.40;;;;;;5008009;28;20626;-72
2023/06/10 06:50:02;;;;;;;8.30;7.50;;;23.10;88.90;;;;;;5004374;28;20308;-72
2023/06/10 06:52:28;;;;;;;8.27;7.47;;;23.10;89.00;;;;;;5002064;28;20292;-71
2023/06/10 06:54:53;;;;;;;8.37;7.57;;;23.10;89.30;;;;;;5016108;28;20460;-71
2023/06/10 06:57:19;;;;;;;9.13;6.70;;;23.30;89.20;;;;;;5007726;28;20471;-71
2023/06/10 06:59:45;;;;;;;8.67;7.30;;;23.40;88.30;;;;;;5008068;28;20300;-71
2023/06/10 07:02:11;;;;;;;7.43;6.83;;;23.40;87.00;;;;;;4980689;28;20627;-71
2023/06/10 07:04:36;;;;;;;6.90;6.20;;;23.60;87.20;;;;;;4987902;28;20225;-71
2023/06/10 07:07:02;;;;;;;7.17;6.47;;;23.70;87.10;;;;;;4989686;28;20216;-71
2023/06/10 07:09:28;;;;;;;8.37;7.67;;;23.80;86.80;;;;;;5001021;28;20233;-72
2023/06/10 07:11:53;;;;;;;8.47;7.57;;;23.80;86.60;;;;;;4985433;28;20470;-72
2023/06/10 07:14:19;;;;;;;8.70;7.90;;;23.90;86.20;;;;;;4991201;28;20237;-71
2023/06/10 07:16:46;;;;;;;8.37;7.50;;;23.90;86.10;;;;;;5005809;28;20707;-73
2023/06/10 07:19:11;;;;;;;8.80;7.93;;;23.90;86.60;;;;;;5002999;28;20225;-72
2023/06/10 07:21:37;;;;;;;8.53;7.73;;;24.00;86.30;;;;;;5003181;28;20464;-72
2023/06/10 07:24:03;;;;;;;8.70;8.00;;;23.90;86.60;;;;;;4994328;28;20241;-72
2023/06/10 07:26:29;;;;;;;8.13;7.33;;;23.80;86.30;;;;;;4998802;28;20846;-71
2023/06/10 07:28:55;;;;;;;8.90;7.77;;;23.90;87.20;;;;;;4984445;28;20519;-72
2023/06/10 07:31:21;;;;;;;8.50;7.70;;;24.10;87.10;;;;;;5001257;28;20222;-73
2023/06/10 07:33:47;;;;;;;8.33;7.60;;;24.30;86.80;;;;;;5002116;28;20526;-72
2023/06/10 07:36:12;;;;;;;8.03;7.27;;;24.30;86.40;;;;;;5002623;28;20217;-73
2023/06/10 07:38:38;;;;;;;8.97;8.07;;;24.40;87.10;;;;;;5001528;28;21053;-73
2023/06/10 07:41:04;;;;;;;9.73;8.10;;;24.60;87.00;;;;;;5005900;28;20653;-72
2023/06/10 07:43:30;;;;;;;9.23;8.30;;;24.70;86.90;;;;;;5003167;28;20217;-73
2023/06/10 07:45:55;;;;;;;7.70;7.10;;;24.70;86.60;;;;;;5004631;28;20994;-72
2023/06/10 07:48:22;;;;;;;8.13;7.43;;;24.70;86.20;;;;;;4985271;28;20221;-73
2023/06/10 07:50:47;;;;;;;8.60;7.80;;;24.60;86.40;;;;;;4998810;28;20308;-72
2023/06/10 07:53:13;;;;;;;8.87;8.00;;;24.50;86.90;;;;;;4998817;28;20531;-71
2023/06/10 07:55:39;;;;;;;8.90;8.20;;;24.80;87.20;;;;;;5006125;28;20217;-72
2023/06/10 07:58:05;;;;;;;8.10;7.50;;;25.00;87.30;;;;;;4991843;28;20260;-72
2023/06/10 08:00:31;;;;;;;8.63;7.87;;;25.00;87.00;;;;;;4993358;28;20542;-73
2023/06/10 08:02:57;;;;;;;8.87;7.97;;;25.00;87.00;;;;;;5002117;28;20484;-72
2023/06/10 08:05:23;;;;;;;9.00;7.80;;;25.10;86.80;;;;;;5005919;28;20221;-71
2023/06/10 08:07:51;;;;;;;9.53;8.70;;;25.10;87.10;;;;;;5001266;28;20226;-74
2023/06/10 08:10:17;;;;;;;8.83;8.03;;;25.40;87.60;;;;;;4983574;28;20268;-71
2023/06/10 08:12:42;;;;;;;9.13;7.50;;;25.80;86.80;;;;;;4993420;28;20468;-72
2023/06/10 08:15:11;;;;;;;8.63;7.77;;;26.00;86.20;;;;;;5008303;28;20245;-73
2023/06/10 08:17:38;;;;;;;8.53;7.73;;;26.10;86.00;;;;;;5003323;28;20222;-72
2023/06/10 08:20:05;;;;;;;10.63;7.70;;;26.00;85.70;;;;;;4986112;28;20476;-72
2023/06/10 08:22:31;;;;;;;8.63;7.90;;;26.20;85.20;;;;;;5003946;28;20457;-72
2023/06/10 08:24:57;;;;;;;8.50;7.80;;;26.30;84.70;;;;;;5005124;28;20835;-72
2023/06/10 08:27:23;;;;;;;8.93;7.83;;;26.40;84.50;;;;;;5007320;28;20539;-71
2023/06/10 08:29:48;;;;;;;9.20;8.40;;;26.40;84.30;;;;;;4992219;28;20715;-73
2023/06/10 08:32:14;;;;;;;9.03;8.10;;;26.20;84.80;;;;;;5004055;28;20221;-73
2023/06/10 08:34:40;;;;;;;8.37;7.67;;;26.20;84.60;;;;;;5003064;28;20205;-72
2023/06/10 08:37:07;;;;;;;8.80;8.00;;;26.40;85.10;;;;;;5006044;28;20297;-73
2023/06/10 08:39:32;;;;;;;9.37;8.53;;;26.50;84.60;;;;;;5004254;28;20225;-73
2023/06/10 08:42:11;;;;;;;9.27;8.37;;;26.60;84.50;;;;;;4989196;28;20843;-72
2023/06/10 08:44:38;;;;;;;9.53;7.87;;;26.60;85.00;;;;;;5005195;28;20344;-73
2023/06/10 08:47:12;;;;;;;9.17;8.37;;;26.70;83.30;;;;;;4992274;28;20216;-74
2023/06/10 08:49:41;;;;;;;9.07;8.23;;;26.70;82.80;;;;;;5007921;28;20408;-73
2023/06/10 08:52:08;;;;;;;8.77;8.05;;;27.00;81.70;;;;;;5001359;28;20463;-74
2023/06/10 08:54:37;;;;;;;8.27;7.57;;;27.20;81.60;;;;;;5009170;28;20249;-73
2023/06/10 08:57:06;;;;;;;9.53;8.60;;;27.10;81.40;;;;;;5003404;28;20229;-73
2023/06/10 08:59:31;;;;;;;8.70;7.95;;;27.20;81.40;;;;;;5006579;28;20240;-73
2023/06/10 09:01:58;;;;;;;9.02;8.07;;;27.50;80.90;;;;;;4989327;28;20209;-72
2023/06/10 09:04:24;;;;;;;9.18;8.27;;;27.50;80.70;;;;;;4984189;28;20229;-72
2023/06/10 09:06:52;;;;;;;9.68;8.88;;;27.50;80.50;;;;;;5003784;28;20233;-71
2023/06/10 09:09:20;;;;;;;9.00;8.25;;;27.30;80.80;;;;;;5003961;28;20233;-73
2023/06/10 09:11:45;;;;;;;9.38;8.48;;;27.50;81.10;;;;;;5006795;28;20213;-73
2023/06/10 09:14:14;;;;;;;10.00;9.07;;;27.80;81.00;;;;;;4996516;28;20313;-73
2023/06/10 09:16:41;;;;;;;9.20;8.40;;;27.80;80.50;;;;;;5000889;28;20221;-73
2023/06/10 09:19:10;;;;;;;9.90;8.60;;;28.00;80.60;;;;;;4987820;28;20249;-73
2023/06/10 09:21:37;;;;;;;8.77;8.00;;;28.00;81.00;;;;;;5006493;28;20220;-73
2023/06/10 09:24:03;;;;;;;10.20;9.40;;;28.00;79.70;;;;;;4993217;28;20224;-72
2023/06/10 09:26:29;;;;;;;10.40;9.50;;;28.10;79.00;;;;;;5008600;28;20728;-74
2023/06/10 09:29:13;;;;;;;9.18;8.07;;;28.00;79.20;;;;;;4991188;28;20594;-74
2023/06/10 09:31:40;;;;;;;8.60;7.90;;;28.10;78.20;;;;;;5007674;28;20893;-73
2023/06/10 09:34:14;;;;;;;9.55;8.75;;;27.90;77.30;;;;;;5002999;28;20661;-72
2023/06/10 09:36:41;;;;;;;9.95;9.13;;;28.10;78.10;;;;;;5006711;28;20696;-73
2023/06/10 09:39:17;;;;;;;10.95;9.07;;;28.30;77.50;;;;;;5005945;28;20279;-73
2023/06/10 09:41:44;;;;;;;9.43;8.73;;;28.60;76.60;;;;;;5006977;28;20217;-71
2023/06/10 09:44:18;;;;;;;10.15;8.77;;;28.70;76.90;;;;;;5005201;28;20695;-73
2023/06/10 09:46:50;;;;;;;9.60;8.90;;;28.60;76.40;;;;;;5004627;28;20214;-74
2023/06/10 09:49:19;;;;;;;10.10;9.20;;;28.20;76.40;;;;;;4994692;28;20213;-74
2023/06/10 09:51:51;;;;;;;10.10;9.30;;;28.30;76.20;;;;;;5008415;28;20221;-73
2023/06/10 09:54:18;;;;;;;10.52;9.68;;;28.50;76.10;;;;;;5006131;28;20750;-74
2023/06/10 09:56:51;;;;;;;9.95;9.15;;;28.20;76.80;;;;;;5007007;28;20217;-73
2023/06/10 09:59:28;;;;;;;10.52;9.63;;;28.50;76.80;;;;;;4986958;28;20230;-74
2023/06/10 10:01:57;;;;;;;9.05;8.25;;;28.60;76.50;;;;;;5000902;28;20652;-73
2023/06/10 10:04:26;;;;;;;10.85;9.98;;;28.90;76.10;;;;;;5005319;28;20305;-73
2023/06/10 10:06:52;;;;;;;9.25;8.32;;;28.80;76.40;;;;;;5004755;28;20307;-74
2023/06/10 10:09:18;;;;;;;9.57;8.90;;;28.90;76.30;;;;;;4998002;28;20249;-74
2023/06/10 10:11:44;;;;;;;9.77;9.07;;;29.00;76.40;;;;;;5006718;28;20217;-73
2023/06/10 10:14:11;;;;;;;10.00;9.20;;;29.10;76.50;;;;;;5004322;28;20304;-73
2023/06/10 10:16:40;;;;;;;10.63;9.77;;;28.90;76.20;;;;;;5004606;28;20225;-73
2023/06/10 10:19:23;;;;;;;9.45;8.65;;;29.10;76.00;;;;;;5002960;28;20225;-72
2023/06/10 10:21:53;;;;;;;9.60;8.77;;;29.20;75.60;;;;;;5001979;28;20213;-74
2023/06/10 10:24:22;;;;;;;10.20;9.30;;;29.50;75.30;;;;;;4999227;28;20236;-73
2023/06/10 10:26:50;;;;;;;11.63;8.63;;;29.70;74.30;;;;;;5001939;28;20906;-75
2023/06/10 10:29:36;;;;;;;10.05;8.98;;;29.70;74.20;;;;;;4997924;28;20279;-74
2023/06/10 10:32:03;;;;;;;9.65;8.95;;;29.60;74.30;;;;;;5001436;28;20232;-74
2023/06/10 10:34:52;;;;;;;8.85;8.15;;;29.50;74.10;;;;;;5003245;28;20253;-75
2023/06/10 10:37:19;;;;;;;9.73;8.93;;;29.80;73.30;;;;;;5003853;28;20209;-71
2023/06/10 10:39:45;;;;;;;9.73;8.90;;;30.00;73.50;;;;;;5000573;28;20419;-74
2023/06/10 10:42:12;;;;;;;9.88;8.98;;;30.00;73.40;;;;;;5002924;28;20751;-75
2023/06/10 10:44:38;;;;;;;8.98;8.27;;;30.10;73.40;;;;;;4996109;28;20353;-74
2023/06/10 10:47:07;;;;;;;9.57;8.77;;;30.30;73.20;;;;;;5007370;28;20236;-74
2023/06/10 10:49:35;;;;;;;8.73;7.95;;;30.30;72.40;;;;;;5003372;28;20221;-74
2023/06/10 10:52:01;;;;;;;8.75;8.05;;;30.60;72.50;;;;;;5002802;28;20221;-74
2023/06/10 10:54:34;;;;;;;9.20;8.10;;;30.60;71.00;;;;;;5003051;28;20225;-74
2023/06/10 10:57:15;;;;;;;9.32;8.63;;;30.60;71.60;;;;;;5000875;28;20214;-73
2023/06/10 11:00:00;;;;;;;8.90;8.15;;;30.50;70.90;;;;;;5001387;28;20221;-73
2023/06/10 11:02:41;;;;;;;9.60;8.73;;;30.40;71.50;;;;;;5004238;28;20226;-75
2023/06/10 11:05:08;;;;;;;9.32;8.43;;;30.30;71.30;;;;;;5002324;28;20225;-74
2023/06/10 11:07:36;;;;;;;9.50;8.68;;;30.30;71.80;;;;;;5001624;28;20219;-74
2023/06/10 11:10:12;;;;;;;9.43;8.63;;;30.20;71.70;;;;;;4998569;28;20303;-74
2023/06/10 11:12:40;;;;;;;8.80;8.13;;;30.30;72.10;;;;;;5000442;28;20253;-74
2023/06/10 11:15:07;;;;;;;9.23;8.43;;;30.30;72.40;;;;;;5003545;28;20225;-74
2023/06/10 11:17:32;;;;;;;9.70;8.80;;;30.20;70.80;;;;;;4984589;28;20229;-74
2023/06/10 11:20:01;;;;;;;9.52;8.68;;;30.00;71.60;;;;;;4990637;28;20228;-75
2023/06/10 11:22:29;;;;;;;9.48;8.77;;;30.30;70.70;;;;;;5003607;28;20807;-74
2023/06/10 11:24:58;;;;;;;9.77;8.88;;;30.10;70.50;;;;;;5003662;28;20241;-74
2023/06/10 11:27:24;;;;;;;8.45;7.82;;;30.00;71.10;;;;;;4973664;28;20213;-73
2023/06/10 11:30:05;;;;;;;8.88;8.18;;;30.00;70.80;;;;;;5004247;28;20734;-74
2023/06/10 11:32:33;;;;;;;8.30;7.68;;;30.10;70.00;;;;;;5004694;28;20217;-73
2023/06/10 11:34:59;;;;;;;9.38;8.57;;;30.40;68.90;;;;;;4985882;28;20217;-74
2023/06/10 11:37:25;;;;;;;9.23;8.40;;;30.50;68.60;;;;;;4989390;28;20232;-74
2023/06/10 11:39:54;;;;;;;9.30;8.50;;;30.50;68.90;;;;;;5007570;28;20225;-75
2023/06/10 11:42:21;;;;;;;8.73;8.10;;;30.40;68.70;;;;;;5006738;28;20225;-74
2023/06/10 11:44:51;;;;;;;9.05;8.35;;;30.30;68.50;;;;;;5008243;28;20683;-74
2023/06/10 11:47:17;;;;;;;8.75;8.05;;;30.60;68.30;;;;;;5005075;28;20752;-74
2023/06/10 11:49:43;;;;;;;9.57;8.77;;;30.70;68.50;;;;;;4991701;28;20229;-74
2023/06/10 11:52:08;;;;;;;9.43;8.50;;;30.70;68.60;;;;;;5001978;28;20276;-74
2023/06/10 11:54:34;;;;;;;9.38;8.68;;;30.80;69.70;;;;;;5002263;28;20228;-74
2023/06/10 11:57:00;;;;;;;9.82;9.02;;;30.50;70.00;;;;;;5006358;28;20300;-74
2023/06/10 11:59:30;;;;;;;9.90;9.05;;;30.20;70.00;;;;;;5004258;28;20829;-73
2023/06/10 12:01:56;;;;;;;11.07;10.10;;;30.20;69.50;;;;;;5011130;28;20311;-73
2023/06/10 12:04:22;;;;;;;10.27;9.48;;;30.30;68.80;;;;;;5002693;28;20322;-74
2023/06/10 12:06:49;;;;;;;9.27;8.48;;;30.30;68.40;;;;;;5007892;28;20213;-73
2023/06/10 12:09:28;;;;;;;9.85;9.05;;;30.50;68.70;;;;;;5011735;28;20315;-74
2023/06/10 12:11:59;;;;;;;8.40;7.80;;;30.70;69.10;;;;;;4996778;28;20276;-74
2023/06/10 12:14:57;;;;;;;10.43;9.18;;;31.00;69.40;;;;;;5008052;28;20634;-74
2023/06/10 12:17:32;;;;;;;9.30;8.50;;;31.00;68.90;;;;;;5005851;28;20829;-74
2023/06/10 12:19:59;;;;;;;10.50;9.50;;;30.60;69.40;;;;;;5004128;28;20225;-74
2023/06/10 12:22:26;;;;;;;9.82;8.93;;;30.50;69.50;;;;;;5007417;28;20221;-74
2023/06/10 12:25:02;;;;;;;9.85;9.13;;;30.60;69.90;;;;;;5007392;28;20275;-74
2023/06/10 12:27:30;;;;;;;9.80;9.10;;;30.60;70.50;;;;;;5004619;28;20304;-74
2023/06/10 12:30:00;;;;;;;8.93;8.18;;;30.60;70.40;;;;;;5006046;28;20228;-74
2023/06/10 12:32:36;;;;;;;9.73;9.05;;;30.90;69.30;;;;;;5005842;28;20233;-74
2023/06/10 12:35:06;;;;;;;9.70;8.80;;;31.00;68.50;;;;;;5001064;28;20942;-74
2023/06/10 12:37:36;;;;;;;9.30;8.60;;;30.90;68.70;;;;;;4995574;28;20222;-75
2023/06/10 12:40:03;;;;;;;10.18;9.38;;;30.70;68.80;;;;;;5005325;28;20311;-74
2023/06/10 12:42:31;;;;;;;10.02;9.23;;;30.80;68.90;;;;;;5008286;28;20758;-74
2023/06/10 12:45:00;;;;;;;10.40;9.60;;;30.70;69.00;;;;;;5007487;28;20691;-74
2023/06/10 12:47:34;;;;;;;9.95;9.05;;;30.60;69.20;;;;;;5006792;28;20324;-74